Alsace — PB4786 — position and weather

sailwx.info

Track history (hours):
 
Tides and Currents Weather Stations Pressure Air Temp Water Temp Dewpoint Dewpoint Depression Visibility Wind Speed Wind Dir Waves Ship Positions

Alsace

Last reported at 2015-Jan-28 00:34 UTC. Time now 2015-Jan-29 06:25 UTC.
Position N 48°41' E 007°55'.

Length 178 m.

Type: Ship. MMSI: 244660556.

Date/timePositionNaut miles runAvg speedWind from/ knotsBaromVisibWave heightAir tempDewpointWater temp
2015-Jan-28 00:34N 48°41' E 007°55'4 3.8
2015-Jan-27 23:33N 48°44' E 007°58'6 5.9
2015-Jan-27 22:33N 48°48' E 008°05'3 2.9
2015-Jan-27 21:33N 48°51' E 008°07'4 3.7
2015-Jan-27 20:33N 48°54' E 008°09'4 4.3
2015-Jan-27 19:33N 48°58' E 008°12'4 4.3
2015-Jan-27 18:33N 49°00' E 008°17'5 4.6
2015-Jan-27 17:34N 49°05' E 008°20'5 4.6
2015-Jan-27 16:34N 49°09' E 008°22'5 4.6
2015-Jan-27 15:34N 49°14' E 008°23'5 5.0
2015-Jan-27 14:33N 49°17' E 008°28'5 4.0
2015-Jan-27 13:24N 49°22' E 008°30'5 5.3
2015-Jan-27 12:27N 49°27' E 008°29'28 3.9
2015-Jan-27 05:18N 49°54' E 008°21'76 4.3
2015-Jan-26 11:29N 50°50' E 006°59'4 4.2
2015-Jan-26 10:28N 50°54' E 007°02'17 4.3
2015-Jan-26 06:32N 51°09' E 006°51'3 2.6
2015-Jan-26 05:33N 51°10' E 006°48'4 4.2
2015-Jan-26 04:33N 51°14' E 006°44'2 2.0
2015-Jan-26 03:33N 51°16' E 006°43'48 3.9
2015-Jan-25 15:26N 51°51' E 005°52'6 6.6
2015-Jan-25 14:30N 51°53' E 005°43'7 6.9
2015-Jan-25 13:34N 51°54' E 005°32'6 6.4
2015-Jan-25 12:33N 51°50' E 005°24'5 5.3
2015-Jan-25 11:34N 51°49' E 005°15'7 6.7
2015-Jan-25 10:34N 51°50' E 005°05'7 7.2
2015-Jan-25 09:34N 51°49' E 004°53'9 8.5
2015-Jan-25 08:33N 51°49' E 004°39'9 9.0
2015-Jan-25 07:33N 51°51' E 004°25'8 7.7
2015-Jan-25 06:34N 51°54' E 004°13'6 6.4
2015-Jan-25 05:34N 51°57' E 004°04'0 0.2
2015-Jan-25 04:33N 51°57' E 004°04'0 0.0
2015-Jan-25 03:34N 51°57' E 004°04'0 0.0
2015-Jan-25 02:33N 51°57' E 004°04'0 0.1
2015-Jan-25 01:33N 51°57' E 004°05'0 0.0
2015-Jan-25 00:34N 51°57' E 004°05'0 0.2
2015-Jan-24 23:33N 51°57' E 004°04'0 0.0
2015-Jan-24 22:33N 51°57' E 004°04'0 0.2
2015-Jan-24 21:33N 51°57' E 004°04'0 0.4
2015-Jan-24 20:34N 51°57' E 004°04'0 0.0
2015-Jan-24 19:33N 51°57' E 004°04'0 0.0
2015-Jan-24 18:33N 51°57' E 004°04'0 0.1
2015-Jan-24 17:34N 51°57' E 004°04'1 0.9
2015-Jan-24 16:33N 51°57' E 004°03'0 0.0
2015-Jan-24 15:33N 51°57' E 004°03'0 0.0
2015-Jan-24 14:33N 51°57' E 004°03'0 0.0
2015-Jan-24 13:33N 51°57' E 004°03'0 0.0
2015-Jan-24 12:34N 51°57' E 004°03'0 0.0
2015-Jan-24 11:33N 51°57' E 004°03'0 0.0
2015-Jan-24 10:34N 51°57' E 004°03'4 3.6
2015-Jan-24 09:34N 51°58' E 004°08'8 8.4
2015-Jan-24 08:33N 51°54' E 004°19'4 3.7
2015-Jan-24 07:33N 51°54' E 004°25'0 0.0
2015-Jan-24 06:33N 51°54' E 004°25'0 0.0
2015-Jan-24 05:33N 51°54' E 004°25'0 0.0
2015-Jan-24 04:33N 51°54' E 004°25'0 0.0
2015-Jan-24 03:33N 51°54' E 004°25'0 0.0
2015-Jan-24 02:33N 51°54' E 004°25'0 0.0
2015-Jan-24 01:33N 51°54' E 004°25'0 0.0
2015-Jan-24 00:33N 51°54' E 004°25'0 0.0
2015-Jan-23 23:33N 51°54' E 004°25'0 0.0
2015-Jan-23 22:33N 51°54' E 004°25'0 0.0
2015-Jan-23 21:33N 51°54' E 004°25'0 0.0
2015-Jan-23 20:33N 51°54' E 004°25'0 0.4
2015-Jan-23 19:33N 51°54' E 004°25'1 1.3
2015-Jan-23 18:33N 51°53' E 004°26'1 0.6
2015-Jan-23 17:33N 51°54' E 004°26'0 0.0
2015-Jan-23 16:33N 51°54' E 004°26'0 0.1
2015-Jan-23 15:33N 51°54' E 004°26'4 4.3
2015-Jan-23 14:33N 51°52' E 004°20'5 4.8
2015-Jan-23 13:33N 51°54' E 004°13'6 5.8
2015-Jan-23 12:33N 51°56' E 004°04'0 0.2
2015-Jan-23 11:33N 51°56' E 004°03'1 1.0
2015-Jan-23 10:33N 51°57' E 004°02'1 1.3
2015-Jan-23 09:33N 51°57' E 004°04'0 0.1
2015-Jan-23 08:33N 51°57' E 004°04'0 0.0
2015-Jan-23 07:33N 51°57' E 004°04'0 0.2
2015-Jan-23 06:33N 51°57' E 004°04'6 5.8
2015-Jan-23 05:33N 51°54' E 004°13'6 6.0
2015-Jan-23 04:33N 51°51' E 004°21'8 7.5
2015-Jan-23 03:33N 51°50' E 004°33'7 7.5
2015-Jan-23 02:33N 51°43' E 004°36'7 6.2
2015-Jan-23 01:22N 51°41' E 004°24'7 7.9
2015-Jan-23 00:30N 51°38' E 004°15'7 7.0
2015-Jan-22 23:33N 51°32' E 004°14'6 5.8
2015-Jan-22 22:30N 51°26' E 004°14'7 7.9
2015-Jan-22 21:33N 51°19' E 004°19'2 2.1
2015-Jan-22 20:33N 51°17' E 004°20'1 1.2
2015-Jan-22 19:33N 51°17' E 004°18'2 1.7
2015-Jan-22 18:33N 51°18' E 004°16'0 0.4
2015-Jan-22 17:33N 51°17' E 004°16'0 0.0
2015-Jan-22 16:21N 51°17' E 004°16'0 0.0
2015-Jan-22 15:21N 51°17' E 004°16'2 2.1
2015-Jan-22 14:33N 51°19' E 004°17'0 0.0
2015-Jan-22 13:33N 51°19' E 004°17'0 0.0
2015-Jan-22 12:33N 51°19' E 004°17'0 0.0
2015-Jan-22 11:33N 51°19' E 004°17'0 0.0
2015-Jan-22 10:33N 51°19' E 004°17'0 0.0
2015-Jan-22 09:33N 51°19' E 004°17'0 0.0
2015-Jan-22 08:33N 51°19' E 004°17'2 1.6
2015-Jan-22 07:33N 51°20' E 004°16'1 0.8
2015-Jan-22 06:34N 51°21' E 004°16'3 2.9
2015-Jan-22 05:33N 51°18' E 004°16'0 0.1
2015-Jan-22 04:33N 51°18' E 004°16'3 2.7
2015-Jan-22 03:33N 51°21' E 004°17'0 0.4
2015-Jan-22 02:33N 51°21' E 004°17'0 0.2
2015-Jan-22 01:33N 51°21' E 004°18'2 2.0
2015-Jan-22 00:33N 51°19' E 004°20'0 0.0
2015-Jan-21 23:33N 51°19' E 004°20'1 0.9
2015-Jan-21 22:50N 51°19' E 004°19'0 0.0
2015-Jan-21 22:46N 51°19' E 004°19'0 0.0
2015-Jan-21 22:33N 51°19' E 004°19'0 0.0
2015-Jan-21 21:30N 51°19' E 004°19'0 0.0
2015-Jan-21 20:33N 51°19' E 004°19'0 0.0
2015-Jan-21 19:30N 51°19' E 004°19'0 0.1
2015-Jan-21 18:33N 51°19' E 004°19'0 0.1
2015-Jan-21 17:33N 51°19' E 004°19'3 3.2
2015-Jan-21 16:33N 51°16' E 004°21'3 2.9
2015-Jan-21 15:33N 51°15' E 004°25'0 0.0
2015-Jan-21 14:33N 51°15' E 004°25'0 0.0
2015-Jan-21 13:33N 51°15' E 004°25'0 0.0
2015-Jan-21 12:33N 51°15' E 004°25'0 0.0
2015-Jan-21 11:33N 51°15' E 004°25'0 0.0
2015-Jan-21 10:33N 51°15' E 004°25'0 0.0
2015-Jan-21 09:33N 51°15' E 004°25'0 0.0
2015-Jan-21 08:33N 51°15' E 004°25'0 0.0
2015-Jan-21 07:33N 51°15' E 004°25'0 0.2
2015-Jan-21 06:33N 51°15' E 004°25'0 0.0
2015-Jan-21 05:33N 51°15' E 004°25'0 0.0
2015-Jan-21 04:33N 51°15' E 004°25'0 0.0
2015-Jan-21 03:33N 51°15' E 004°25'0 0.0
2015-Jan-21 02:33N 51°15' E 004°25'0 0.3
2015-Jan-21 01:33N 51°15' E 004°24'3 3.0
2015-Jan-21 00:33N 51°17' E 004°20'2 1.6
2015-Jan-20 23:33N 51°18' E 004°18'0 0.4
2015-Jan-20 22:33N 51°18' E 004°18'0 0.1
2015-Jan-20 21:34N 51°18' E 004°17'2 2.3
2015-Jan-20 20:34N 51°20' E 004°17'1 0.9
2015-Jan-20 19:33N 51°21' E 004°16'3 3.0
2015-Jan-20 18:32N 51°18' E 004°16'0 0.0
2015-Jan-20 17:33N 51°18' E 004°16'0 0.0
2015-Jan-20 16:33N 51°18' E 004°16'0 0.5
2015-Jan-20 15:33N 51°17' E 004°16'0 0.1
2015-Jan-20 14:32N 51°17' E 004°16'0 0.1
2015-Jan-20 13:32N 51°17' E 004°16'3 2.9
2015-Jan-20 12:33N 51°17' E 004°20'0 0.1
2015-Jan-20 11:34N 51°16' E 004°20'1 1.4
2015-Jan-20 10:33N 51°18' E 004°20'2 1.9
2015-Jan-20 09:33N 51°20' E 004°20'0 0.1
2015-Jan-20 08:33N 51°20' E 004°20'0 0.0
2015-Jan-20 07:33N 51°20' E 004°20'0 0.0
2015-Jan-20 06:33N 51°20' E 004°20'0 0.0
2015-Jan-20 05:31N 51°20' E 004°20'0 0.0
2015-Jan-20 04:31N 51°20' E 004°20'0 0.0
2015-Jan-20 03:32N 51°20' E 004°20'0 0.0
2015-Jan-20 02:33N 51°20' E 004°20'0 0.0
2015-Jan-20 01:29N 51°20' E 004°20'0 0.0
2015-Jan-20 00:33N 51°20' E 004°20'0 0.0
2015-Jan-19 23:33N 51°20' E 004°20'0 0.0
2015-Jan-19 22:33N 51°20' E 004°20'0 0.0
2015-Jan-19 21:33N 51°20' E 004°20'0 0.0
2015-Jan-19 20:33N 51°20' E 004°20'1 0.6
2015-Jan-19 19:33N 51°19' E 004°19'0 0.3
2015-Jan-19 18:31N 51°19' E 004°19'0 0.0
2015-Jan-19 17:32N 51°19' E 004°19'0 0.0
2015-Jan-19 16:29N 51°19' E 004°19'0 0.0
2015-Jan-19 15:30N 51°19' E 004°19'0 0.0
2015-Jan-19 14:33N 51°19' E 004°19'0 0.0
2015-Jan-19 13:31N 51°19' E 004°19'0 0.0
2015-Jan-19 12:33N 51°19' E 004°19'0 0.1
2015-Jan-19 11:32N 51°19' E 004°19'0 0.0
2015-Jan-19 10:33N 51°19' E 004°19'3 3.3
2015-Jan-19 09:33N 51°17' E 004°22'2 1.8
2015-Jan-19 08:33N 51°18' E 004°20'7 6.8
2015-Jan-19 07:32N 51°24' E 004°14'3 3.3
2015-Jan-19 06:33N 51°27' E 004°14'7 6.6
2015-Jan-19 05:33N 51°34' E 004°14'6 6.1
2015-Jan-19 04:32N 51°39' E 004°18'5 4.6
2015-Jan-19 03:32N 51°41' E 004°25'8 7.5
2015-Jan-19 02:32N 51°43' E 004°37'8 7.7
2015-Jan-19 01:34N 51°50' E 004°32'8 8.4
2015-Jan-19 00:33N 51°52' E 004°19'8 8.3
2015-Jan-18 23:33N 51°56' E 004°07'4 3.7
2015-Jan-18 22:33N 51°58' E 004°03'0 0.0
2015-Jan-18 21:33N 51°58' E 004°03'0 0.0
2015-Jan-18 20:33N 51°58' E 004°03'2 1.7
2015-Jan-18 19:33N 51°57' E 004°05'0 0.0
2015-Jan-18 18:33N 51°57' E 004°05'0 0.3
2015-Jan-18 17:33N 51°57' E 004°05'8 7.6
2015-Jan-18 16:33N 51°52' E 004°15'6 6.0
2015-Jan-18 15:33N 51°53' E 004°24'1 0.6
2015-Jan-18 14:33N 51°53' E 004°24'0 0.1
2015-Jan-18 13:33N 51°53' E 004°24'3 2.6
2015-Jan-18 12:33N 51°51' E 004°21'6 6.5
2015-Jan-18 11:33N 51°50' E 004°31'5 4.6
2015-Jan-18 10:33N 51°48' E 004°38'8 7.6
2015-Jan-18 09:33N 51°49' E 004°50'9 8.7
2015-Jan-18 08:33N 51°49' E 005°04'9 9.1
2015-Jan-18 07:33N 51°49' E 005°19'7 7.4
2015-Jan-18 06:33N 51°53' E 005°29'9 9.2
2015-Jan-18 05:33N 51°53' E 005°44'4 3.9
2015-Jan-18 04:33N 51°52' E 005°50'0 0.0
2015-Jan-18 03:22N 51°52' E 005°50'0 0.0
2015-Jan-18 02:13N 51°52' E 005°50'  
Track history (hours):
 
Tides and Currents Weather Stations Pressure Air Temp Water Temp Dewpoint Dewpoint Depression Visibility Wind Speed Wind Dir Waves Ship Positions

Alsace

Last reported at 2015-Jan-28 00:34 UTC. Time now 2015-Jan-29 06:25 UTC.
Position N 48°41' E 007°55'.

Length 178 m.

Type: Ship. MMSI: 244660556.

Date/timePositionNaut miles runAvg speedWind from/ knotsBaromVisibWave heightAir tempDewpointWater temp
2015-Jan-28 00:34N 48°41' E 007°55'4 3.8
2015-Jan-27 23:33N 48°44' E 007°58'6 5.9
2015-Jan-27 22:33N 48°48' E 008°05'3 2.9
2015-Jan-27 21:33N 48°51' E 008°07'4 3.7
2015-Jan-27 20:33N 48°54' E 008°09'4 4.3
2015-Jan-27 19:33N 48°58' E 008°12'4 4.3
2015-Jan-27 18:33N 49°00' E 008°17'5 4.6
2015-Jan-27 17:34N 49°05' E 008°20'5 4.6
2015-Jan-27 16:34N 49°09' E 008°22'5 4.6
2015-Jan-27 15:34N 49°14' E 008°23'5 5.0
2015-Jan-27 14:33N 49°17' E 008°28'5 4.0
2015-Jan-27 13:24N 49°22' E 008°30'5 5.3
2015-Jan-27 12:27N 49°27' E 008°29'28 3.9
2015-Jan-27 05:18N 49°54' E 008°21'76 4.3
2015-Jan-26 11:29N 50°50' E 006°59'4 4.2
2015-Jan-26 10:28N 50°54' E 007°02'17 4.3
2015-Jan-26 06:32N 51°09' E 006°51'3 2.6
2015-Jan-26 05:33N 51°10' E 006°48'4 4.2
2015-Jan-26 04:33N 51°14' E 006°44'2 2.0
2015-Jan-26 03:33N 51°16' E 006°43'48 3.9
2015-Jan-25 15:26N 51°51' E 005°52'6 6.6
2015-Jan-25 14:30N 51°53' E 005°43'7 6.9
2015-Jan-25 13:34N 51°54' E 005°32'6 6.4
2015-Jan-25 12:33N 51°50' E 005°24'5 5.3
2015-Jan-25 11:34N 51°49' E 005°15'7 6.7
2015-Jan-25 10:34N 51°50' E 005°05'7 7.2
2015-Jan-25 09:34N 51°49' E 004°53'9 8.5
2015-Jan-25 08:33N 51°49' E 004°39'9 9.0
2015-Jan-25 07:33N 51°51' E 004°25'8 7.7
2015-Jan-25 06:34N 51°54' E 004°13'6 6.4
2015-Jan-25 05:34N 51°57' E 004°04'0 0.2
2015-Jan-25 04:33N 51°57' E 004°04'0 0.0
2015-Jan-25 03:34N 51°57' E 004°04'0 0.0
2015-Jan-25 02:33N 51°57' E 004°04'0 0.1
2015-Jan-25 01:33N 51°57' E 004°05'0 0.0
2015-Jan-25 00:34N 51°57' E 004°05'0 0.2
2015-Jan-24 23:33N 51°57' E 004°04'0 0.0
2015-Jan-24 22:33N 51°57' E 004°04'0 0.2
2015-Jan-24 21:33N 51°57' E 004°04'0 0.4
2015-Jan-24 20:34N 51°57' E 004°04'0 0.0
2015-Jan-24 19:33N 51°57' E 004°04'0 0.0
2015-Jan-24 18:33N 51°57' E 004°04'0 0.1
2015-Jan-24 17:34N 51°57' E 004°04'1 0.9
2015-Jan-24 16:33N 51°57' E 004°03'0 0.0
2015-Jan-24 15:33N 51°57' E 004°03'0 0.0
2015-Jan-24 14:33N 51°57' E 004°03'0 0.0
2015-Jan-24 13:33N 51°57' E 004°03'0 0.0
2015-Jan-24 12:34N 51°57' E 004°03'0 0.0
2015-Jan-24 11:33N 51°57' E 004°03'0 0.0
2015-Jan-24 10:34N 51°57' E 004°03'4 3.6
2015-Jan-24 09:34N 51°58' E 004°08'8 8.4
2015-Jan-24 08:33N 51°54' E 004°19'4 3.7
2015-Jan-24 07:33N 51°54' E 004°25'0 0.0
2015-Jan-24 06:33N 51°54' E 004°25'0 0.0
2015-Jan-24 05:33N 51°54' E 004°25'0 0.0
2015-Jan-24 04:33N 51°54' E 004°25'0 0.0
2015-Jan-24 03:33N 51°54' E 004°25'0 0.0
2015-Jan-24 02:33N 51°54' E 004°25'0 0.0
2015-Jan-24 01:33N 51°54' E 004°25'0 0.0
2015-Jan-24 00:33N 51°54' E 004°25'0 0.0
2015-Jan-23 23:33N 51°54' E 004°25'0 0.0
2015-Jan-23 22:33N 51°54' E 004°25'0 0.0
2015-Jan-23 21:33N 51°54' E 004°25'0 0.0
2015-Jan-23 20:33N 51°54' E 004°25'0 0.4
2015-Jan-23 19:33N 51°54' E 004°25'1 1.3
2015-Jan-23 18:33N 51°53' E 004°26'1 0.6
2015-Jan-23 17:33N 51°54' E 004°26'0 0.0
2015-Jan-23 16:33N 51°54' E 004°26'0 0.1
2015-Jan-23 15:33N 51°54' E 004°26'4 4.3
2015-Jan-23 14:33N 51°52' E 004°20'5 4.8
2015-Jan-23 13:33N 51°54' E 004°13'6 5.8
2015-Jan-23 12:33N 51°56' E 004°04'0 0.2
2015-Jan-23 11:33N 51°56' E 004°03'1 1.0
2015-Jan-23 10:33N 51°57' E 004°02'1 1.3
2015-Jan-23 09:33N 51°57' E 004°04'0 0.1
2015-Jan-23 08:33N 51°57' E 004°04'0 0.0
2015-Jan-23 07:33N 51°57' E 004°04'0 0.2
2015-Jan-23 06:33N 51°57' E 004°04'6 5.8
2015-Jan-23 05:33N 51°54' E 004°13'6 6.0
2015-Jan-23 04:33N 51°51' E 004°21'8 7.5
2015-Jan-23 03:33N 51°50' E 004°33'7 7.5
2015-Jan-23 02:33N 51°43' E 004°36'7 6.2
2015-Jan-23 01:22N 51°41' E 004°24'7 7.9
2015-Jan-23 00:30N 51°38' E 004°15'7 7.0
2015-Jan-22 23:33N 51°32' E 004°14'6 5.8
2015-Jan-22 22:30N 51°26' E 004°14'7 7.9
2015-Jan-22 21:33N 51°19' E 004°19'2 2.1
2015-Jan-22 20:33N 51°17' E 004°20'1 1.2
2015-Jan-22 19:33N 51°17' E 004°18'2 1.7
2015-Jan-22 18:33N 51°18' E 004°16'0 0.4
2015-Jan-22 17:33N 51°17' E 004°16'0 0.0
2015-Jan-22 16:21N 51°17' E 004°16'0 0.0
2015-Jan-22 15:21N 51°17' E 004°16'2 2.1
2015-Jan-22 14:33N 51°19' E 004°17'0 0.0
2015-Jan-22 13:33N 51°19' E 004°17'0 0.0
2015-Jan-22 12:33N 51°19' E 004°17'0 0.0
2015-Jan-22 11:33N 51°19' E 004°17'0 0.0
2015-Jan-22 10:33N 51°19' E 004°17'0 0.0
2015-Jan-22 09:33N 51°19' E 004°17'0 0.0
2015-Jan-22 08:33N 51°19' E 004°17'2 1.6
2015-Jan-22 07:33N 51°20' E 004°16'1 0.8
2015-Jan-22 06:34N 51°21' E 004°16'3 2.9
2015-Jan-22 05:33N 51°18' E 004°16'0 0.1
2015-Jan-22 04:33N 51°18' E 004°16'3 2.7
2015-Jan-22 03:33N 51°21' E 004°17'0 0.4
2015-Jan-22 02:33N 51°21' E 004°17'0 0.2
2015-Jan-22 01:33N 51°21' E 004°18'2 2.0
2015-Jan-22 00:33N 51°19' E 004°20'0 0.0
2015-Jan-21 23:33N 51°19' E 004°20'1 0.9
2015-Jan-21 22:50N 51°19' E 004°19'0 0.0
2015-Jan-21 22:46N 51°19' E 004°19'0 0.0
2015-Jan-21 22:33N 51°19' E 004°19'0 0.0
2015-Jan-21 21:30N 51°19' E 004°19'0 0.0
2015-Jan-21 20:33N 51°19' E 004°19'0 0.0
2015-Jan-21 19:30N 51°19' E 004°19'0 0.1
2015-Jan-21 18:33N 51°19' E 004°19'0 0.1
2015-Jan-21 17:33N 51°19' E 004°19'3 3.2
2015-Jan-21 16:33N 51°16' E 004°21'3 2.9
2015-Jan-21 15:33N 51°15' E 004°25'0 0.0
2015-Jan-21 14:33N 51°15' E 004°25'0 0.0
2015-Jan-21 13:33N 51°15' E 004°25'0 0.0
2015-Jan-21 12:33N 51°15' E 004°25'0 0.0
2015-Jan-21 11:33N 51°15' E 004°25'0 0.0
2015-Jan-21 10:33N 51°15' E 004°25'0 0.0
2015-Jan-21 09:33N 51°15' E 004°25'0 0.0
2015-Jan-21 08:33N 51°15' E 004°25'0 0.0
2015-Jan-21 07:33N 51°15' E 004°25'0 0.2
2015-Jan-21 06:33N 51°15' E 004°25'0 0.0
2015-Jan-21 05:33N 51°15' E 004°25'0 0.0
2015-Jan-21 04:33N 51°15' E 004°25'0 0.0
2015-Jan-21 03:33N 51°15' E 004°25'0 0.0
2015-Jan-21 02:33N 51°15' E 004°25'0 0.3
2015-Jan-21 01:33N 51°15' E 004°24'3 3.0
2015-Jan-21 00:33N 51°17' E 004°20'2 1.6
2015-Jan-20 23:33N 51°18' E 004°18'0 0.4
2015-Jan-20 22:33N 51°18' E 004°18'0 0.1
2015-Jan-20 21:34N 51°18' E 004°17'2 2.3
2015-Jan-20 20:34N 51°20' E 004°17'1 0.9
2015-Jan-20 19:33N 51°21' E 004°16'3 3.0
2015-Jan-20 18:32N 51°18' E 004°16'0 0.0
2015-Jan-20 17:33N 51°18' E 004°16'0 0.0
2015-Jan-20 16:33N 51°18' E 004°16'0 0.5
2015-Jan-20 15:33N 51°17' E 004°16'0 0.1
2015-Jan-20 14:32N 51°17' E 004°16'0 0.1
2015-Jan-20 13:32N 51°17' E 004°16'3 2.9
2015-Jan-20 12:33N 51°17' E 004°20'0 0.1
2015-Jan-20 11:34N 51°16' E 004°20'1 1.4
2015-Jan-20 10:33N 51°18' E 004°20'2 1.9
2015-Jan-20 09:33N 51°20' E 004°20'0 0.1
2015-Jan-20 08:33N 51°20' E 004°20'0 0.0
2015-Jan-20 07:33N 51°20' E 004°20'0 0.0
2015-Jan-20 06:33N 51°20' E 004°20'0 0.0
2015-Jan-20 05:31N 51°20' E 004°20'0 0.0
2015-Jan-20 04:31N 51°20' E 004°20'0 0.0
2015-Jan-20 03:32N 51°20' E 004°20'0 0.0
2015-Jan-20 02:33N 51°20' E 004°20'0 0.0
2015-Jan-20 01:29N 51°20' E 004°20'0 0.0
2015-Jan-20 00:33N 51°20' E 004°20'0 0.0
2015-Jan-19 23:33N 51°20' E 004°20'0 0.0
2015-Jan-19 22:33N 51°20' E 004°20'0 0.0
2015-Jan-19 21:33N 51°20' E 004°20'0 0.0
2015-Jan-19 20:33N 51°20' E 004°20'1 0.6
2015-Jan-19 19:33N 51°19' E 004°19'0 0.3
2015-Jan-19 18:31N 51°19' E 004°19'0 0.0
2015-Jan-19 17:32N 51°19' E 004°19'0 0.0
2015-Jan-19 16:29N 51°19' E 004°19'0 0.0
2015-Jan-19 15:30N 51°19' E 004°19'0 0.0
2015-Jan-19 14:33N 51°19' E 004°19'0 0.0
2015-Jan-19 13:31N 51°19' E 004°19'0 0.0
2015-Jan-19 12:33N 51°19' E 004°19'0 0.1
2015-Jan-19 11:32N 51°19' E 004°19'0 0.0
2015-Jan-19 10:33N 51°19' E 004°19'3 3.3
2015-Jan-19 09:33N 51°17' E 004°22'2 1.8
2015-Jan-19 08:33N 51°18' E 004°20'7 6.8
2015-Jan-19 07:32N 51°24' E 004°14'3 3.3
2015-Jan-19 06:33N 51°27' E 004°14'7 6.6
2015-Jan-19 05:33N 51°34' E 004°14'6 6.1
2015-Jan-19 04:32N 51°39' E 004°18'5 4.6
2015-Jan-19 03:32N 51°41' E 004°25'8 7.5
2015-Jan-19 02:32N 51°43' E 004°37'8 7.7
2015-Jan-19 01:34N 51°50' E 004°32'8 8.4
2015-Jan-19 00:33N 51°52' E 004°19'8 8.3
2015-Jan-18 23:33N 51°56' E 004°07'4 3.7
2015-Jan-18 22:33N 51°58' E 004°03'0 0.0
2015-Jan-18 21:33N 51°58' E 004°03'0 0.0
2015-Jan-18 20:33N 51°58' E 004°03'2 1.7
2015-Jan-18 19:33N 51°57' E 004°05'0 0.0
2015-Jan-18 18:33N 51°57' E 004°05'0 0.3
2015-Jan-18 17:33N 51°57' E 004°05'8 7.6
2015-Jan-18 16:33N 51°52' E 004°15'6 6.0
2015-Jan-18 15:33N 51°53' E 004°24'1 0.6
2015-Jan-18 14:33N 51°53' E 004°24'0 0.1
2015-Jan-18 13:33N 51°53' E 004°24'3 2.6
2015-Jan-18 12:33N 51°51' E 004°21'6 6.5
2015-Jan-18 11:33N 51°50' E 004°31'5 4.6
2015-Jan-18 10:33N 51°48' E 004°38'8 7.6
2015-Jan-18 09:33N 51°49' E 004°50'9 8.7
2015-Jan-18 08:33N 51°49' E 005°04'9 9.1
2015-Jan-18 07:33N 51°49' E 005°19'7 7.4
2015-Jan-18 06:33N 51°53' E 005°29'9 9.2
2015-Jan-18 05:33N 51°53' E 005°44'4 3.9
2015-Jan-18 04:33N 51°52' E 005°50'0 0.0
2015-Jan-18 03:22N 51°52' E 005°50'0 0.0
2015-Jan-18 02:13N 51°52' E 005°50'  

Dump ship's entire track history